createdAt,value
2018-11-27T00:00:21.044Z,96.70
2018-11-27T00:02:49.553Z,86.27
2018-11-27T00:05:18.067Z,90.27
2018-11-27T00:07:46.578Z,73.37
2018-11-27T00:10:15.064Z,84.10
2018-11-27T00:12:43.559Z,80.40
2018-11-27T00:15:12.891Z,74.73
2018-11-27T00:17:41.400Z,74.40
2018-11-27T00:20:11.990Z,80.50
2018-11-27T00:22:40.669Z,74.63
2018-11-27T00:25:12.245Z,72.80
2018-11-27T00:27:40.727Z,84.23
2018-11-27T00:30:13.510Z,83.17
2018-11-27T00:32:42.035Z,80.30
2018-11-27T00:35:12.395Z,79.30
2018-11-27T00:37:40.992Z,94.93
2018-11-27T00:40:13.579Z,91.67
2018-11-27T00:42:42.083Z,73.73
2018-11-27T00:45:11.795Z,82.57
2018-11-27T00:47:40.404Z,78.57
2018-11-27T00:50:11.195Z,86.90
2018-11-27T00:52:39.741Z,93.10
2018-11-27T00:55:09.874Z,88.43
2018-11-27T00:57:38.915Z,81.60
2018-11-27T01:00:12.903Z,84.50
2018-11-27T01:02:41.432Z,91.00
2018-11-27T01:05:11.354Z,81.97
2018-11-27T01:07:39.856Z,73.43
2018-11-27T01:10:11.270Z,79.80
2018-11-27T01:12:39.770Z,74.13
2018-11-27T01:15:09.738Z,75.60
2018-11-27T01:17:38.854Z,82.10
2018-11-27T01:20:13.186Z,81.20
2018-11-27T01:22:41.718Z,80.47
2018-11-27T01:25:11.044Z,79.43
2018-11-27T01:27:39.534Z,76.53
2018-11-27T01:30:10.134Z,81.93
2018-11-27T01:32:38.686Z,78.37
2018-11-27T01:35:09.117Z,79.20
2018-11-27T01:37:37.677Z,66.90
2018-11-27T01:40:09.721Z,56.80
2018-11-27T01:42:38.217Z,66.67
2018-11-27T01:45:08.909Z,68.73
2018-11-27T01:47:37.426Z,81.57
2018-11-27T01:50:08.374Z,70.93
2018-11-27T01:52:36.882Z,66.17
2018-11-27T01:55:06.173Z,65.30
2018-11-27T01:57:34.906Z,80.70
2018-11-27T02:00:03.546Z,69.77
2018-11-27T02:02:32.037Z,71.70
2018-11-27T02:05:00.546Z,64.80
2018-11-27T02:07:29.043Z,73.00
2018-11-27T02:09:57.554Z,56.70
2018-11-27T02:12:26.478Z,67.13
2018-11-27T02:14:55.090Z,67.13
2018-11-27T02:17:23.602Z,67.20
2018-11-27T02:19:52.067Z,67.67
2018-11-27T02:22:20.578Z,66.47
2018-11-27T02:24:49.068Z,64.83
2018-11-27T02:27:17.771Z,64.63
2018-11-27T02:29:46.245Z,59.53
2018-11-27T02:32:14.770Z,58.77
2018-11-27T02:34:43.261Z,61.93
2018-11-27T02:37:11.735Z,60.57
2018-11-27T02:39:40.250Z,63.83
2018-11-27T02:42:08.731Z,52.27
2018-11-27T02:44:37.321Z,63.83
2018-11-27T02:47:06.257Z,60.53
2018-11-27T02:49:34.738Z,54.00
2018-11-27T02:52:03.293Z,56.00
2018-11-27T02:54:31.770Z,52.17
2018-11-27T02:57:00.265Z,55.93
2018-11-27T02:59:28.773Z,55.57
2018-11-27T03:01:57.269Z,54.73
2018-11-27T03:04:25.877Z,51.27
2018-11-27T03:06:54.365Z,56.43
2018-11-27T03:09:23.089Z,62.30
2018-11-27T03:11:51.569Z,49.60
2018-11-27T03:14:20.053Z,52.93
2018-11-27T03:16:48.554Z,57.10
2018-11-27T03:19:17.044Z,51.57
2018-11-27T03:21:45.901Z,50.63
2018-11-27T03:24:14.392Z,61.27
2018-11-27T03:26:42.889Z,53.00
2018-11-27T03:29:11.355Z,53.67
2018-11-27T03:31:39.882Z,52.83
2018-11-27T03:34:08.392Z,55.03
2018-11-27T03:36:36.873Z,60.03
2018-11-27T03:39:09.094Z,53.97
2018-11-27T03:41:37.881Z,46.73
2018-11-27T03:44:06.633Z,46.13
2018-11-27T03:46:35.158Z,54.43
2018-11-27T03:49:03.673Z,41.87
2018-11-27T03:51:32.165Z,40.10
2018-11-27T03:54:01.509Z,47.77
2018-11-27T03:56:29.998Z,51.13
2018-11-27T03:58:58.457Z,42.13
2018-11-27T04:01:26.940Z,43.47
2018-11-27T04:03:55.436Z,36.87
2018-11-27T04:06:23.981Z,39.87
2018-11-27T04:08:52.592Z,41.43
2018-11-27T04:11:21.071Z,38.97
2018-11-27T04:13:49.541Z,40.53
2018-11-27T04:16:18.032Z,38.73
2018-11-27T04:18:46.524Z,40.27
2018-11-27T04:21:15.061Z,48.30
2018-11-27T04:23:43.528Z,40.50
2018-11-27T04:26:12.129Z,44.03
2018-11-27T04:28:40.630Z,43.47
2018-11-27T04:31:09.124Z,50.53
2018-11-27T04:33:37.603Z,48.17
2018-11-27T04:36:06.657Z,44.83
2018-11-27T04:38:35.152Z,49.20
2018-11-27T04:41:03.632Z,48.13
2018-11-27T04:43:32.180Z,37.13
2018-11-27T04:46:00.669Z,30.73
2018-11-27T04:48:29.171Z,40.57
2018-11-27T04:50:57.669Z,44.30
2018-11-27T04:53:26.172Z,41.90
2018-11-27T04:55:54.668Z,41.13
2018-11-27T04:58:23.160Z,44.73
2018-11-27T05:00:51.648Z,38.53
2018-11-27T05:03:20.148Z,43.20
2018-11-27T05:05:48.656Z,34.40
2018-11-27T05:08:17.164Z,36.67
2018-11-27T05:10:45.756Z,43.87
2018-11-27T05:13:14.231Z,37.70
2018-11-27T05:15:42.960Z,38.93
2018-11-27T05:18:11.477Z,48.90
2018-11-27T05:20:39.971Z,50.63
2018-11-27T05:23:08.491Z,51.73
2018-11-27T05:25:37.015Z,56.40
2018-11-27T05:28:05.595Z,43.23
2018-11-27T05:30:34.175Z,47.87
2018-11-27T05:33:02.670Z,51.07
2018-11-27T05:35:31.803Z,54.50
2018-11-27T05:38:01.853Z,68.87
2018-11-27T05:40:30.367Z,64.30
2018-11-27T05:43:01.279Z,58.50
2018-11-27T05:45:30.884Z,61.07
2018-11-27T05:47:59.358Z,68.50
2018-11-27T05:50:28.583Z,83.63
2018-11-27T05:52:57.075Z,137.23
2018-11-27T05:55:25.554Z,164.70
2018-11-27T05:57:55.090Z,89.50
2018-11-27T06:00:25.538Z,74.90
2018-11-27T06:02:56.073Z,65.37
2018-11-27T06:05:24.758Z,74.83
2018-11-27T06:07:53.263Z,62.07
2018-11-27T06:10:22.442Z,70.40
2018-11-27T06:12:50.964Z,66.10
2018-11-27T06:15:20.518Z,72.57
2018-11-27T06:17:54.194Z,78.87
2018-11-27T06:20:23.153Z,92.73
2018-11-27T06:22:52.422Z,90.60
2018-11-27T06:25:22.114Z,83.60
2018-11-27T06:27:52.678Z,76.03
2018-11-27T06:30:22.745Z,70.77
2018-11-27T06:32:51.318Z,75.17
2018-11-27T06:37:44.942Z,77.80
2018-11-27T06:40:16.010Z,81.40
2018-11-27T06:42:44.497Z,87.40
2018-11-27T06:45:14.237Z,73.23
2018-11-27T06:47:42.851Z,81.70
2018-11-27T06:50:12.493Z,80.50
2018-11-27T06:52:41.009Z,85.53
2018-11-27T06:55:11.906Z,85.90
2018-11-27T06:57:40.408Z,85.17
2018-11-27T07:00:23.641Z,107.13
2018-11-27T07:02:52.173Z,124.83
2018-11-27T07:05:20.704Z,78.13
2018-11-27T07:07:49.173Z,73.40
2018-11-27T07:10:18.713Z,69.97
2018-11-27T07:12:47.908Z,83.33
2018-11-27T07:15:18.780Z,77.10
2018-11-27T07:17:47.306Z,78.60
2018-11-27T07:20:15.828Z,79.67
2018-11-27T07:22:44.328Z,82.40
2018-11-27T07:25:13.776Z,75.77
2018-11-27T07:27:43.620Z,84.20
2018-11-27T07:30:13.585Z,81.03
2018-11-27T07:32:42.944Z,72.60
2018-11-27T07:35:12.608Z,76.53
2018-11-27T07:37:41.244Z,82.93
2018-11-27T07:40:12.028Z,88.53
2018-11-27T07:42:40.645Z,89.20
2018-11-27T07:45:13.922Z,93.20
2018-11-27T07:47:42.469Z,88.23
2018-11-27T07:50:11.724Z,93.60
2018-11-27T07:52:40.311Z,91.90
2018-11-27T07:55:11.159Z,92.73
2018-11-27T07:57:39.692Z,87.37
2018-11-27T08:00:16.739Z,90.97
2018-11-27T08:02:47.112Z,97.27
2018-11-27T08:05:18.555Z,87.47
2018-11-27T08:07:50.999Z,95.40
2018-11-27T08:10:20.675Z,95.17
2018-11-27T08:12:49.181Z,80.50
2018-11-27T08:15:18.859Z,94.10
2018-11-27T08:17:47.383Z,92.70
2018-11-27T08:20:20.026Z,89.00
2018-11-27T08:22:48.494Z,95.70
2018-11-27T08:25:17.003Z,90.90
2018-11-27T08:27:45.539Z,88.87
2018-11-27T08:30:16.095Z,101.80
2018-11-27T08:32:44.663Z,103.63
2018-11-27T08:35:16.063Z,89.27
2018-11-27T08:37:45.023Z,90.97
2018-11-27T08:40:14.639Z,96.93
2018-11-27T08:42:43.165Z,100.27
2018-11-27T08:45:15.535Z,102.43
2018-11-27T08:47:44.111Z,100.33
2018-11-27T08:50:13.722Z,106.83
2018-11-27T08:52:46.659Z,112.57
2018-11-27T08:55:12.659Z,119.50
2018-11-27T08:57:42.294Z,117.70
2018-11-27T09:00:13.398Z,103.20
2018-11-27T09:02:41.935Z,137.63
2018-11-27T09:05:11.046Z,129.80
2018-11-27T09:07:39.574Z,144.73
2018-11-27T09:10:12.474Z,129.90
2018-11-27T09:12:40.970Z,116.17
2018-11-27T09:15:11.110Z,164.40
2018-11-27T09:17:39.850Z,142.53
2018-11-27T09:20:10.154Z,148.97
2018-11-27T09:22:38.858Z,125.07
2018-11-27T09:25:10.053Z,104.47
2018-11-27T09:27:38.571Z,98.53
2018-11-27T09:30:21.110Z,97.57
2018-11-27T09:32:49.703Z,100.57
2018-11-27T09:35:18.271Z,99.00
2018-11-27T09:37:46.815Z,93.10
2018-11-27T09:40:16.740Z,110.67
2018-11-27T09:42:45.297Z,99.60
2018-11-27T09:45:16.038Z,99.90
2018-11-27T09:47:45.423Z,94.60
2018-11-27T09:50:14.546Z,131.53
2018-11-27T09:52:43.066Z,152.80
2018-11-27T09:55:12.751Z,125.80
2018-11-27T09:57:41.251Z,114.40
2018-11-27T10:00:24.960Z,108.90
2018-11-27T10:02:54.754Z,104.43
2018-11-27T10:05:23.254Z,116.00
2018-11-27T10:07:51.766Z,101.10
2018-11-27T10:10:22.378Z,89.33
2018-11-27T10:12:51.083Z,73.77
2018-11-27T10:15:21.435Z,84.40
2018-11-27T10:17:52.827Z,96.10
2018-11-27T10:20:22.282Z,115.57
2018-11-27T10:22:50.787Z,96.07
2018-11-27T10:25:19.281Z,75.13
2018-11-27T10:27:47.810Z,75.17
2018-11-27T10:30:17.330Z,69.87
2018-11-27T10:32:45.962Z,70.03
2018-11-27T10:35:17.490Z,91.07
2018-11-27T10:37:46.069Z,84.47
2018-11-27T10:40:14.567Z,87.13
2018-11-27T10:42:43.200Z,69.17
2018-11-27T10:45:13.102Z,55.97
2018-11-27T10:47:41.615Z,58.10
2018-11-27T10:50:12.142Z,55.63
2018-11-27T10:52:42.087Z,49.00
2018-11-27T10:55:11.942Z,57.47
2018-11-27T10:57:40.814Z,90.97
2018-11-27T11:00:19.930Z,48.90
2018-11-27T11:02:53.810Z,53.60
2018-11-27T11:05:25.422Z,51.53
2018-11-27T11:07:54.157Z,63.83
2018-11-27T11:10:22.654Z,83.90
2018-11-27T11:12:51.161Z,194.20
2018-11-27T11:15:19.671Z,86.23
2018-11-27T11:17:48.178Z,41.50
2018-11-27T11:20:16.725Z,27.40
2018-11-27T11:22:45.257Z,26.77
2018-11-27T11:25:15.845Z,31.30
2018-11-27T11:27:44.865Z,27.90
2018-11-27T11:30:17.645Z,28.23
2018-11-27T11:32:46.206Z,26.87
2018-11-27T11:35:14.716Z,29.53
2018-11-27T11:37:43.333Z,18.27
2018-11-27T11:40:16.914Z,23.87
2018-11-27T11:42:45.616Z,19.53
2018-11-27T11:45:14.136Z,17.63
2018-11-27T11:47:43.049Z,19.47
2018-11-27T11:50:15.649Z,17.57
2018-11-27T11:52:45.670Z,18.80
2018-11-27T11:55:15.193Z,15.80
2018-11-27T11:57:44.076Z,13.03
2018-11-27T12:00:21.780Z,15.60
2018-11-27T12:02:50.344Z,14.67
2018-11-27T12:05:18.857Z,14.23
2018-11-27T12:07:47.723Z,18.03
2018-11-27T12:10:16.828Z,13.03
2018-11-27T12:12:47.052Z,16.20
2018-11-27T12:15:16.568Z,11.57
2018-11-27T12:17:45.627Z,14.47
2018-11-27T12:20:15.225Z,16.50
2018-11-27T12:22:45.019Z,20.60
2018-11-27T12:25:13.915Z,21.83
2018-11-27T12:27:42.431Z,15.40
2018-11-27T12:30:16.293Z,17.33
2018-11-27T12:32:44.840Z,41.83
2018-11-27T12:35:13.952Z,61.43
2018-11-27T12:37:42.572Z,58.03
2018-11-27T12:40:13.133Z,39.57
2018-11-27T12:42:41.669Z,21.90
2018-11-27T12:45:15.500Z,22.83
2018-11-27T12:47:44.291Z,103.63
2018-11-27T12:51:18.370Z,48.40
2018-11-27T12:53:46.535Z,14.07
2018-11-27T12:56:15.078Z,12.07
2018-11-27T12:58:43.553Z,13.93
2018-11-27T13:01:12.038Z,12.67
2018-11-27T13:03:40.524Z,8.87
2018-11-27T13:06:09.198Z,9.40
2018-11-27T13:08:37.675Z,12.13
2018-11-27T13:11:11.374Z,12.60
2018-11-27T13:13:34.779Z,15.67
2018-11-27T13:16:03.403Z,11.90
2018-11-27T13:18:31.899Z,12.43
2018-11-27T13:21:01.179Z,12.00
2018-11-27T13:23:29.699Z,15.63
2018-11-27T13:25:58.176Z,20.83
2018-11-27T13:28:26.663Z,16.27
2018-11-27T13:31:01.131Z,14.13
2018-11-27T13:33:38.135Z,15.67
2018-11-27T13:36:07.883Z,17.00
2018-11-27T13:38:36.515Z,14.83
2018-11-27T13:41:05.400Z,15.27
2018-11-27T13:43:34.629Z,14.00
2018-11-27T13:46:03.199Z,20.40
2018-11-27T13:48:31.727Z,34.27
2018-11-27T13:51:00.211Z,42.90
2018-11-27T13:53:28.751Z,35.50
2018-11-27T13:55:57.231Z,60.43
2018-11-27T13:58:25.727Z,69.73
2018-11-27T14:00:54.520Z,40.63
2018-11-27T14:03:23.012Z,55.47
2018-11-27T14:05:51.550Z,24.93
2018-11-27T14:08:20.087Z,31.27
2018-11-27T14:10:48.582Z,25.93
2018-11-27T14:13:17.099Z,20.40
2018-11-27T14:15:45.590Z,23.97
2018-11-27T14:18:14.074Z,27.93
2018-11-27T14:20:42.566Z,24.37
2018-11-27T14:23:11.069Z,16.20
2018-11-27T14:25:40.866Z,21.33
2018-11-27T14:28:09.342Z,17.90
2018-11-27T14:30:37.872Z,13.97
2018-11-27T14:33:06.433Z,22.63
2018-11-27T14:35:34.929Z,16.90
2018-11-27T14:38:03.433Z,22.70
2018-11-27T14:40:31.920Z,23.50
2018-11-27T14:43:00.409Z,24.93
2018-11-27T14:45:28.938Z,18.20
2018-11-27T14:47:58.509Z,33.43
2018-11-27T14:50:27.014Z,43.13
2018-11-27T14:52:55.517Z,36.57
2018-11-27T14:55:26.157Z,29.60
2018-11-27T14:57:54.867Z,30.77
2018-11-27T15:00:24.465Z,38.73
2018-11-27T15:02:53.109Z,37.07
2018-11-27T15:05:25.191Z,29.17
2018-11-27T15:07:53.769Z,24.13
2018-11-27T15:10:22.322Z,21.43
2018-11-27T15:12:50.933Z,23.60
2018-11-27T15:15:19.469Z,34.07
2018-11-27T15:17:47.965Z,51.43
2018-11-27T15:20:17.553Z,77.30
2018-11-27T15:22:46.061Z,223.73
2018-11-27T15:25:14.606Z,109.00
2018-11-27T15:27:43.166Z,74.23
2018-11-27T15:30:18.956Z,80.77
2018-11-27T15:32:47.561Z,105.47
2018-11-27T15:35:16.209Z,170.07
2018-11-27T15:37:44.737Z,62.03
2018-11-27T15:40:15.501Z,41.13
2018-11-27T15:42:44.024Z,47.53
2018-11-27T15:45:14.057Z,40.70
2018-11-27T15:47:42.577Z,33.93
2018-11-27T15:50:11.225Z,40.63
2018-11-27T15:52:39.701Z,46.50
2018-11-27T15:55:16.597Z,41.33
2018-11-27T15:57:45.487Z,53.03
2018-11-27T16:00:18.011Z,37.63
2018-11-27T16:02:46.698Z,47.10
2018-11-27T16:05:15.710Z,43.40
2018-11-27T16:07:44.606Z,37.43
2018-11-27T16:10:14.949Z,67.33
2018-11-27T16:12:43.474Z,77.27
2018-11-27T16:15:13.063Z,102.80
2018-11-27T16:17:41.616Z,83.37
2018-11-27T16:20:19.424Z,88.57
2018-11-27T16:22:48.866Z,154.67
2018-11-27T16:25:18.307Z,143.27
2018-11-27T16:27:46.906Z,93.87
2018-11-27T16:30:16.501Z,65.00
2018-11-27T16:32:45.026Z,108.33
2018-11-27T16:35:14.162Z,91.20
2018-11-27T16:37:43.739Z,72.33
2018-11-27T16:40:13.606Z,115.10
2018-11-27T16:42:42.166Z,169.37
2018-11-27T16:45:13.291Z,147.03
2018-11-27T16:47:42.026Z,161.53
2018-11-27T16:50:11.698Z,116.93
2018-11-27T16:52:40.204Z,88.93
2018-11-27T16:55:12.920Z,97.43
2018-11-27T16:57:41.486Z,74.20
2018-11-27T17:00:20.201Z,83.03
2018-11-27T17:02:50.309Z,48.40
2018-11-27T17:05:18.244Z,52.53
2018-11-27T17:07:46.756Z,59.03
2018-11-27T17:10:16.299Z,76.67
2018-11-27T17:12:45.280Z,45.23
2018-11-27T17:15:17.128Z,59.37
2018-11-27T17:17:45.650Z,54.93
2018-11-27T17:20:30.085Z,62.63
2018-11-27T17:22:59.773Z,47.40
2018-11-27T17:25:28.289Z,40.00
2018-11-27T17:28:13.590Z,54.03
2018-11-27T17:30:47.966Z,46.83
2018-11-27T17:33:25.486Z,50.67
2018-11-27T17:35:53.971Z,47.93
2018-11-27T17:38:22.467Z,45.27
2018-11-27T17:40:51.025Z,45.63
2018-11-27T17:43:19.513Z,45.43
2018-11-27T17:45:48.009Z,48.90
2018-11-27T17:48:16.529Z,39.70
2018-11-27T17:50:45.033Z,43.63
2018-11-27T17:53:13.517Z,30.30
2018-11-27T17:55:42.001Z,35.20
2018-11-27T17:58:10.502Z,46.97
2018-11-27T18:00:39.023Z,41.53
2018-11-27T18:03:08.744Z,36.53
2018-11-27T18:05:37.300Z,34.37
2018-11-27T18:08:07.027Z,37.10
2018-11-27T18:10:36.283Z,30.43
2018-11-27T18:13:05.460Z,51.47
2018-11-27T18:15:34.043Z,49.60
2018-11-27T18:18:02.539Z,46.63
2018-11-27T18:20:31.051Z,66.30
2018-11-27T18:22:59.575Z,78.63
2018-11-27T18:25:28.114Z,40.97
2018-11-27T18:27:56.591Z,38.17
2018-11-27T18:30:25.115Z,40.23
2018-11-27T18:32:53.618Z,41.20
2018-11-27T18:35:24.255Z,48.53
2018-11-27T18:37:53.014Z,54.13
2018-11-27T18:40:21.821Z,95.03
2018-11-27T18:42:52.332Z,122.60
2018-11-27T18:45:24.798Z,113.70
2018-11-27T18:47:53.342Z,138.57
2018-11-27T18:50:22.934Z,139.20
2018-11-27T18:52:51.445Z,162.53
2018-11-27T18:55:20.006Z,92.53
2018-11-27T18:57:48.964Z,50.90
2018-11-27T19:00:22.540Z,44.70
2018-11-27T19:02:51.084Z,54.37
2018-11-27T19:05:19.618Z,37.43
2018-11-27T19:07:48.160Z,30.93
2018-11-27T19:10:28.359Z,42.27
2018-11-27T19:12:56.912Z,117.47
2018-11-27T19:15:57.933Z,160.97
2018-11-27T19:18:27.240Z,156.37
2018-11-27T19:20:55.748Z,110.17
2018-11-27T19:23:25.420Z,87.23
2018-11-27T19:25:54.076Z,82.73
2018-11-27T19:28:22.557Z,62.33
2018-11-27T19:30:51.565Z,70.17
2018-11-27T19:33:20.150Z,54.03
2018-11-27T19:35:48.665Z,55.50
2018-11-27T19:38:18.441Z,70.33
2018-11-27T19:40:46.925Z,59.23
2018-11-27T19:43:15.445Z,81.17
2018-11-27T19:45:43.977Z,79.97
2018-11-27T19:48:13.785Z,83.50
2018-11-27T19:50:42.277Z,68.87
2018-11-27T19:53:12.570Z,74.00
2018-11-27T19:55:40.991Z,49.03
2018-11-27T19:58:10.066Z,61.20
2018-11-27T20:00:38.656Z,50.50
2018-11-27T20:03:08.761Z,63.57
2018-11-27T20:05:37.288Z,52.43
2018-11-27T20:08:07.373Z,53.87
2018-11-27T20:10:35.912Z,54.17
2018-11-27T20:13:04.420Z,56.87
2018-11-27T20:15:32.905Z,56.70
2018-11-27T20:18:01.433Z,73.03
2018-11-27T20:20:29.949Z,113.93
2018-11-27T20:22:58.758Z,95.90
2018-11-27T20:25:27.317Z,84.30
2018-11-27T20:27:55.836Z,137.47
2018-11-27T20:30:26.952Z,114.07
2018-11-27T20:32:59.607Z,89.93
2018-11-27T20:35:28.668Z,102.80
2018-11-27T20:37:57.892Z,82.13
2018-11-27T20:40:26.544Z,70.03
2018-11-27T20:42:55.068Z,68.57
2018-11-27T20:45:24.908Z,89.23
2018-11-27T20:47:57.048Z,77.53
2018-11-27T20:50:25.544Z,159.93
2018-11-27T20:52:54.119Z,274.50
2018-11-27T20:55:22.687Z,214.23
2018-11-27T20:57:53.616Z,150.53
2018-11-27T21:00:25.805Z,111.13
2018-11-27T21:02:58.723Z,93.43
2018-11-27T21:05:27.339Z,80.13
2018-11-27T21:07:55.827Z,78.80
2018-11-27T21:10:24.371Z,65.40
2018-11-27T21:12:52.861Z,92.37
2018-11-27T21:15:21.427Z,85.80
2018-11-27T21:17:49.976Z,106.63
2018-11-27T21:20:19.543Z,71.63
2018-11-27T21:22:47.379Z,76.27
2018-11-27T21:25:19.968Z,72.80
2018-11-27T21:27:57.698Z,83.67
2018-11-27T21:30:26.202Z,71.97
2018-11-27T21:32:54.731Z,69.80
2018-11-27T21:35:23.257Z,68.53
2018-11-27T21:37:51.743Z,75.80
2018-11-27T21:40:20.483Z,70.93
2018-11-27T21:42:48.995Z,111.93
2018-11-27T21:45:22.702Z,183.37
2018-11-27T21:47:51.794Z,352.53
2018-11-27T21:50:25.382Z,165.90
2018-11-27T21:52:54.574Z,287.20
2018-11-27T21:55:23.095Z,403.10
2018-11-27T21:57:51.901Z,496.97
2018-11-27T22:00:22.361Z,253.53
2018-11-27T22:02:50.850Z,143.83
2018-11-27T22:05:19.366Z,179.13
2018-11-27T22:07:47.875Z,47.93
2018-11-27T22:10:18.551Z,47.07
2018-11-27T22:12:48.341Z,53.70
2018-11-27T22:15:20.310Z,49.20
2018-11-27T22:17:48.824Z,45.87
2018-11-27T22:20:21.250Z,45.43
2018-11-27T22:22:45.905Z,48.47
2018-11-27T22:25:14.410Z,47.33
2018-11-27T22:27:42.901Z,51.77
2018-11-27T22:30:13.461Z,57.70
2018-11-27T22:32:43.209Z,65.70
2018-11-27T22:35:11.909Z,64.57
2018-11-27T22:37:40.410Z,53.77
2018-11-27T22:40:24.620Z,47.97
2018-11-27T22:42:55.114Z,59.03
2018-11-27T22:45:31.597Z,57.87
2018-11-27T22:48:00.113Z,55.37
2018-11-27T22:50:28.650Z,45.07
2018-11-27T22:52:57.181Z,48.53
2018-11-27T22:55:25.710Z,49.87
2018-11-27T22:57:54.221Z,39.60
2018-11-27T23:00:35.658Z,49.50
2018-11-27T23:03:07.705Z,49.77
2018-11-27T23:05:36.220Z,56.93
2018-11-27T23:08:04.701Z,54.63
2018-11-27T23:10:36.534Z,55.57
2018-11-27T23:13:05.571Z,53.40
2018-11-27T23:15:34.064Z,58.40
2018-11-27T23:18:02.584Z,80.70
2018-11-27T23:20:31.116Z,159.40
2018-11-27T23:22:59.632Z,92.73
2018-11-27T23:25:28.157Z,67.97
2018-11-27T23:27:56.681Z,80.27
2018-11-27T23:30:26.008Z,73.13
2018-11-27T23:32:54.528Z,81.50
2018-11-27T23:35:23.069Z,64.17
2018-11-27T23:37:51.588Z,92.90
2018-11-27T23:40:21.059Z,87.93
2018-11-27T23:42:49.618Z,108.17
2018-11-27T23:45:19.560Z,151.57
2018-11-27T23:47:48.119Z,175.13
2018-11-27T23:50:17.816Z,93.03
2018-11-27T23:52:46.591Z,101.63
2018-11-27T23:55:15.745Z,144.13
2018-11-27T23:57:45.295Z,95.87
